Time;durP1;ratioP1;P1;durP2;ratioP2;P2;SDS_P1;SDS_P2;PMS_P1;PMS_P2;Temp;Humidity;BMP_temperature;BMP_pressure;BME280_temperature;BME280_humidity;BME280_pressure;Samples;Min_cycle;Max_cycle;Signal;HPM_P1;HPM_P2
2021/11/05 00:01:07;;;;;;;48.13;31.85;;;;;;;12.18;100.00;100922.31;1763466;81;20989;-70
2021/11/05 00:03:34;;;;;;;50.48;34.53;;;;;;;12.20;100.00;100919.45;1793834;80;21021;-71
2021/11/05 00:06:01;;;;;;;52.85;36.38;;;;;;;12.21;100.00;100912.52;1783204;80;21542;-71
2021/11/05 00:08:28;;;;;;;54.38;35.95;;;;;;;12.23;100.00;100905.58;1770320;80;21012;-70
2021/11/05 00:10:54;;;;;;;59.53;38.33;;;;;;;12.24;100.00;100904.06;1726363;82;21088;-71
2021/11/05 00:13:21;;;;;;;58.10;38.25;;;;;;;12.26;100.00;100900.69;1737643;80;21079;-70
2021/11/05 00:15:48;;;;;;;57.58;38.48;;;;;;;12.27;100.00;100898.33;1757201;81;21535;-70
2021/11/05 00:18:14;;;;;;;61.85;40.08;;;;;;;12.27;100.00;100902.40;1756627;82;21027;-71
2021/11/05 00:20:41;;;;;;;56.58;36.95;;;;;;;12.27;100.00;100897.46;1756519;82;21114;-71
2021/11/05 00:23:09;;;;;;;55.52;36.90;;;;;;;12.29;100.00;100893.59;1752973;82;21058;-70
2021/11/05 00:25:37;;;;;;;52.45;36.65;;;;;;;12.31;100.00;100897.50;1753707;82;21651;-71
2021/11/05 00:28:04;;;;;;;54.18;36.88;;;;;;;12.30;100.00;100904.77;1749334;82;21074;-70
2021/11/05 00:30:30;;;;;;;55.60;38.25;;;;;;;12.30;100.00;100895.79;1756072;82;21555;-71
2021/11/05 00:32:57;;;;;;;56.90;38.90;;;;;;;12.30;100.00;100899.86;1751607;82;21003;-71
2021/11/05 00:35:23;;;;;;;54.83;36.83;;;;;;;12.30;100.00;100902.05;1751677;82;21048;-71
2021/11/05 00:37:50;;;;;;;53.30;35.15;;;;;;;12.32;100.00;100902.77;1755771;82;21122;-71
2021/11/05 00:40:17;;;;;;;50.67;33.92;;;;;;;12.34;100.00;100908.00;1753997;82;21003;-72
2021/11/05 00:42:46;;;;;;;48.38;33.88;;;;;;;12.35;100.00;100910.56;1745535;82;21035;-71
2021/11/05 00:45:14;;;;;;;47.65;31.42;;;;;;;12.37;100.00;100905.49;1755557;82;21035;-71
2021/11/05 00:47:41;;;;;;;43.70;30.52;;;;;;;12.39;100.00;100910.24;1747482;82;21051;-71
2021/11/05 00:50:07;;;;;;;39.48;26.97;;;;;;;12.39;100.00;100907.53;1748681;82;21056;-71
2021/11/05 00:52:34;;;;;;;38.90;26.60;;;;;;;12.38;100.00;100906.69;1753126;82;21477;-71
2021/11/05 00:55:02;;;;;;;41.92;27.37;;;;;;;12.40;100.00;100901.11;1749913;82;21498;-71
2021/11/05 00:57:30;;;;;;;38.00;26.62;;;;;;;12.42;100.00;100897.72;1755206;81;21549;-71
2021/11/05 00:59:58;;;;;;;38.17;26.12;;;;;;;12.41;100.00;100894.66;1752397;82;21067;-71
2021/11/05 01:02:25;;;;;;;37.28;25.92;;;;;;;12.41;100.00;100902.79;1749518;81;21066;-71
2021/11/05 01:04:52;;;;;;;38.53;25.10;;;;;;;12.41;100.00;100902.79;1754659;82;21063;-71
2021/11/05 01:07:19;;;;;;;34.75;24.07;;;;;;;12.40;100.00;100902.47;1750887;82;20985;-71
2021/11/05 01:09:45;;;;;;;35.65;24.98;;;;;;;12.40;100.00;100907.89;1754941;81;21009;-71
2021/11/05 01:12:12;;;;;;;34.08;23.07;;;;;;;12.40;100.00;100903.30;1753931;81;21101;-71
2021/11/05 01:14:39;;;;;;;34.53;23.12;;;;;;;12.40;100.00;100903.30;1780916;80;21072;-71
2021/11/05 01:17:06;;;;;;;35.13;24.18;;;;;;;12.40;100.00;100904.66;1777206;80;21017;-72
2021/11/05 01:19:32;;;;;;;38.08;24.98;;;;;;;12.40;100.00;100906.53;1784038;80;21033;-71
2021/11/05 01:21:59;;;;;;;35.58;25.15;;;;;;;12.40;100.00;100908.73;1785905;80;21033;-71
2021/11/05 01:24:25;;;;;;;35.25;25.12;;;;;;;12.40;100.00;100904.66;1780302;80;21491;-71
2021/11/05 01:26:52;;;;;;;35.68;25.02;;;;;;;12.42;100.00;100900.44;1782168;80;21009;-71
2021/11/05 01:29:19;;;;;;;37.73;26.02;;;;;;;12.41;100.00;100905.02;1782373;80;21011;-71
2021/11/05 01:31:46;;;;;;;39.30;24.25;;;;;;;12.43;100.00;100907.55;1742691;82;21030;-71
2021/11/05 01:34:13;;;;;;;35.75;24.45;;;;;;;12.44;100.00;100921.46;1747474;82;21024;-70
2021/11/05 01:36:40;;;;;;;35.25;25.10;;;;;;;12.44;100.00;100920.95;1774524;80;21003;-71
2021/11/05 01:39:07;;;;;;;36.08;23.95;;;;;;;12.43;100.00;100908.41;1751016;82;20994;-71
2021/11/05 01:41:39;;;;;;;36.68;24.30;;;;;;;12.43;100.00;100912.97;1764512;81;21066;-71
2021/11/05 01:44:07;;;;;;;35.92;25.52;;;;;;;12.44;100.00;100913.33;1745497;82;21027;-71
2021/11/05 01:46:33;;;;;;;37.55;26.30;;;;;;;12.44;100.00;100920.95;1782307;80;21006;-71
2021/11/05 01:49:00;;;;;;;35.25;24.90;;;;;;;12.45;100.00;100921.82;1782703;80;21041;-71
2021/11/05 01:51:27;;;;;;;37.73;25.80;;;;;;;12.45;100.00;100922.66;1782691;80;21053;-71
2021/11/05 01:53:54;;;;;;;35.10;24.15;;;;;;;12.44;100.00;100925.02;1774971;80;21497;-71
2021/11/05 01:56:21;;;;;;;36.95;23.92;;;;;;;12.45;100.00;100919.95;1777424;80;21049;-71
2021/11/05 01:58:47;;;;;;;33.83;23.38;;;;;;;12.44;100.00;100912.81;1782898;80;21014;-70
2021/11/05 02:01:14;;;;;;;33.67;22.87;;;;;;;12.46;100.00;100913.49;1780752;80;21003;-71
2021/11/05 02:03:41;;;;;;;33.60;22.82;;;;;;;12.48;100.00;100909.27;1784857;80;21543;-71
2021/11/05 02:06:08;;;;;;;32.13;21.55;;;;;;;12.48;100.00;100904.71;1771298;80;21031;-71
2021/11/05 02:08:35;;;;;;;33.90;21.17;;;;;;;12.48;100.00;100891.16;1755991;80;21042;-71
2021/11/05 02:11:04;;;;;;;30.35;19.57;;;;;;;12.49;100.00;100890.12;1742424;81;21057;-71
2021/11/05 02:13:33;;;;;;;32.35;20.45;;;;;;;12.49;100.00;100888.77;1741196;82;21071;-71
2021/11/05 02:15:59;;;;;;;30.60;20.08;;;;;;;12.49;100.00;100898.77;1718653;83;21513;-71
2021/11/05 02:18:30;;;;;;;33.73;20.15;;;;;;;12.48;100.00;100883.02;1751109;81;21035;-71
2021/11/05 02:20:57;;;;;;;31.93;21.25;;;;;;;12.49;100.00;100881.98;1719497;83;21032;-72
2021/11/05 02:23:24;;;;;;;32.05;19.90;;;;;;;12.49;100.00;100879.78;1717741;81;21021;-71
2021/11/05 02:25:52;;;;;;;31.23;19.82;;;;;;;12.50;100.00;100884.17;1749082;81;21066;-71
2021/11/05 02:28:18;;;;;;;30.20;19.62;;;;;;;12.49;100.00;100885.20;1718605;83;20984;-72
2021/11/05 02:30:45;;;;;;;29.90;19.40;;;;;;;12.52;100.00;100887.60;1747637;82;21008;-71
2021/11/05 02:33:12;;;;;;;30.43;19.95;;;;;;;12.52;100.00;100884.37;1750656;82;21067;-71
2021/11/05 02:35:40;;;;;;;31.52;19.80;;;;;;;12.52;100.00;100887.09;1721377;83;21047;-71
2021/11/05 02:38:07;;;;;;;30.55;20.15;;;;;;;12.52;100.00;100891.16;1752540;81;21066;-71
2021/11/05 02:40:34;;;;;;;29.12;18.80;;;;;;;12.51;100.00;100889.45;1731209;82;21040;-71
2021/11/05 02:43:01;;;;;;;31.02;19.32;;;;;;;12.51;100.00;100887.25;1754094;81;21043;-71
2021/11/05 02:45:28;;;;;;;30.25;20.17;;;;;;;12.51;100.00;100882.66;1747673;81;20988;-71
2021/11/05 02:47:55;;;;;;;31.87;21.20;;;;;;;12.52;100.00;100884.89;1715957;84;20991;-71
2021/11/05 02:50:21;;;;;;;31.00;21.07;;;;;;;12.52;100.00;100895.23;1748940;82;21019;-71
2021/11/05 02:52:48;;;;;;;34.98;22.95;;;;;;;12.53;100.00;100887.41;1720928;83;21031;-71
2021/11/05 02:55:16;;;;;;;32.83;21.80;;;;;;;12.54;100.00;100882.86;1751712;82;21028;-71
2021/11/05 02:57:43;;;;;;;32.33;21.23;;;;;;;12.56;100.00;100890.84;1749068;82;21537;-71
2021/11/05 03:00:11;;;;;;;32.58;21.70;;;;;;;12.57;100.00;100884.38;1720220;83;21099;-72
2021/11/05 03:02:38;;;;;;;33.90;21.87;;;;;;;12.59;100.00;100882.35;1752731;81;21572;-70
2021/11/05 03:05:06;;;;;;;32.13;22.30;;;;;;;12.60;100.00;100887.62;1746888;82;21531;-71
2021/11/05 03:07:33;;;;;;;31.12;21.35;;;;;;;12.59;100.00;100889.13;1751740;80;21006;-71
2021/11/05 03:09:59;;;;;;;33.73;22.07;;;;;;;12.60;100.00;100886.78;1819390;79;20998;-71
2021/11/05 03:12:26;;;;;;;30.17;20.88;;;;;;;12.62;100.00;100896.95;1792102;80;21014;-71
2021/11/05 03:14:53;;;;;;;35.17;22.00;;;;;;;12.62;100.00;100886.09;1769369;80;21045;-71
2021/11/05 03:17:20;;;;;;;29.42;20.32;;;;;;;12.61;100.00;100902.05;1762067;81;21069;-71
2021/11/05 03:19:47;;;;;;;32.85;21.30;;;;;;;12.63;100.00;100902.73;1745973;81;21519;-71
2021/11/05 03:22:13;;;;;;;31.02;20.95;;;;;;;12.62;100.00;100895.59;1782829;80;21472;-69
2021/11/05 03:24:40;;;;;;;32.70;22.02;;;;;;;12.61;100.00;100891.20;1779373;80;21022;-70
2021/11/05 03:27:07;;;;;;;31.40;20.82;;;;;;;12.60;100.00;100890.84;1728418;82;20993;-71
2021/11/05 03:29:35;;;;;;;34.15;22.82;;;;;;;12.60;100.00;100875.92;1782287;80;21054;-71
2021/11/05 03:32:02;;;;;;;34.18;22.95;;;;;;;12.59;100.00;100880.52;1772418;80;21029;-70
2021/11/05 03:34:28;;;;;;;34.33;23.42;;;;;;;12.60;100.00;100872.70;1781290;80;21026;-68
2021/11/05 03:36:55;;;;;;;33.30;22.65;;;;;;;12.60;100.00;100863.20;1779727;80;21029;-70
2021/11/05 03:39:22;;;;;;;33.60;22.20;;;;;;;12.57;100.00;100871.69;1779211;80;21042;-70
2021/11/05 03:41:48;;;;;;;35.98;22.90;;;;;;;12.57;100.00;100873.53;1782985;80;20990;-71
2021/11/05 03:44:15;;;;;;;36.40;24.67;;;;;;;12.58;100.00;100877.44;1780830;80;21096;-69
2021/11/05 03:46:42;;;;;;;38.85;23.85;;;;;;;12.57;100.00;100859.48;1794030;80;21052;-71
2021/11/05 03:49:10;;;;;;;36.03;25.10;;;;;;;12.57;100.00;100861.32;1789822;80;21026;-70
2021/11/05 03:51:37;;;;;;;35.68;25.40;;;;;;;12.56;100.00;100867.27;1793892;80;21013;-68
2021/11/05 03:54:04;;;;;;;33.13;23.70;;;;;;;12.57;100.00;100866.75;1793836;80;21044;-70
2021/11/05 03:56:31;;;;;;;34.80;24.10;;;;;;;12.54;100.00;100857.93;1788119;80;21045;-69
2021/11/05 03:58:59;;;;;;;35.20;23.70;;;;;;;12.54;100.00;100866.06;1789777;80;21076;-69
2021/11/05 04:01:26;;;;;;;35.65;24.10;;;;;;;12.53;100.00;100863.00;1784496;80;21056;-70
2021/11/05 04:03:53;;;;;;;32.88;22.13;;;;;;;12.53;100.00;100863.00;1780205;80;21490;-69
2021/11/05 04:06:22;;;;;;;31.55;21.85;;;;;;;12.54;100.00;100863.35;1792871;80;21541;-70
2021/11/05 04:08:49;;;;;;;37.95;22.17;;;;;;;12.54;100.00;100860.64;1815709;78;20998;-70
2021/11/05 04:11:15;;;;;;;33.53;21.15;;;;;;;12.55;100.00;100861.48;1794696;80;21037;-69
2021/11/05 04:13:42;;;;;;;33.30;21.17;;;;;;;12.56;100.00;100855.58;1807144;78;20985;-69
2021/11/05 04:16:10;;;;;;;31.05;20.32;;;;;;;12.53;100.00;100850.79;1783953;80;21487;-70
2021/11/05 04:18:37;;;;;;;32.25;21.17;;;;;;;12.51;100.00;100860.96;1743270;81;21518;-69
2021/11/05 04:21:03;;;;;;;29.60;20.52;;;;;;;12.50;100.00;100857.92;1763868;80;21054;-70
2021/11/05 04:23:30;;;;;;;29.67;20.10;;;;;;;12.52;100.00;100858.61;1768265;80;21073;-70
2021/11/05 04:25:57;;;;;;;28.87;19.82;;;;;;;12.53;100.00;100868.42;1793366;80;21001;-70
2021/11/05 04:28:25;;;;;;;31.05;20.05;;;;;;;12.51;100.00;100868.26;1783598;80;21527;-70
2021/11/05 04:30:53;;;;;;;29.55;20.30;;;;;;;12.50;100.00;100875.56;1789884;80;21005;-69
2021/11/05 04:33:19;;;;;;;31.70;21.77;;;;;;;12.49;100.00;100879.27;1781111;80;21017;-71
2021/11/05 04:35:46;;;;;;;31.68;22.25;;;;;;;12.50;100.00;100877.39;1783588;80;21042;-71
2021/11/05 04:38:13;;;;;;;32.70;22.07;;;;;;;12.50;100.00;100877.39;1788774;80;21029;-73
2021/11/05 04:40:39;;;;;;;32.25;22.67;;;;;;;12.52;100.00;100876.75;1786822;80;21001;-70
2021/11/05 04:43:06;;;;;;;34.38;23.22;;;;;;;12.49;100.00;100888.77;1790456;80;21038;-69
2021/11/05 04:45:34;;;;;;;34.95;24.10;;;;;;;12.51;100.00;100884.02;1778821;80;21033;-72
2021/11/05 04:48:01;;;;;;;36.68;24.05;;;;;;;12.49;100.00;100879.27;1771659;80;21001;-69
2021/11/05 04:50:28;;;;;;;38.80;25.55;;;;;;;12.49;100.00;100880.63;1782377;80;21006;-70
2021/11/05 04:52:54;;;;;;;36.40;24.90;;;;;;;12.48;100.00;100883.02;1780732;80;21053;-71
2021/11/05 04:55:21;;;;;;;37.55;25.10;;;;;;;12.49;100.00;100894.19;1782706;80;21053;-70
2021/11/05 04:57:49;;;;;;;37.88;24.98;;;;;;;12.50;100.00;100890.95;1782706;80;21078;-70
2021/11/05 05:00:17;;;;;;;34.25;24.37;;;;;;;12.51;100.00;100888.09;1779277;80;21031;-71
2021/11/05 05:02:44;;;;;;;35.95;25.05;;;;;;;12.53;100.00;100894.20;1782671;80;21006;-70
2021/11/05 05:05:10;;;;;;;38.78;26.07;;;;;;;12.53;100.00;100897.42;1780004;80;21006;-72
2021/11/05 05:07:39;;;;;;;40.20;26.95;;;;;;;12.52;100.00;100897.09;1746962;81;21539;-69
2021/11/05 05:10:06;;;;;;;39.33;26.62;;;;;;;12.53;100.00;100887.41;1714312;83;21039;-70
2021/11/05 05:12:34;;;;;;;38.75;27.17;;;;;;;12.51;100.00;100890.80;1717458;83;20999;-70
2021/11/05 05:15:01;;;;;;;40.15;28.27;;;;;;;12.52;100.00;100902.52;1761282;81;20987;-72
2021/11/05 05:17:28;;;;;;;41.40;28.20;;;;;;;12.55;100.00;100900.81;1761583;81;21026;-72
2021/11/05 05:19:55;;;;;;;41.60;28.85;;;;;;;12.55;100.00;100899.46;1751979;81;21522;-71
2021/11/05 05:22:22;;;;;;;41.15;26.50;;;;;;;12.56;100.00;100901.17;1757514;81;21039;-71
2021/11/05 05:24:51;;;;;;;42.33;28.47;;;;;;;12.56;100.00;100905.25;1742102;81;21032;-72
2021/11/05 05:27:18;;;;;;;42.20;27.22;;;;;;;12.57;100.00;100903.38;1738797;82;21000;-72
2021/11/05 05:29:44;;;;;;;40.28;26.97;;;;;;;12.56;100.00;100901.69;1747101;81;21034;-72
2021/11/05 05:32:11;;;;;;;41.15;27.45;;;;;;;12.60;100.00;100904.41;1761438;81;21051;-70
2021/11/05 05:34:38;;;;;;;38.73;26.90;;;;;;;12.62;100.00;100899.66;1753218;80;21040;-72
2021/11/05 05:37:06;;;;;;;40.17;27.93;;;;;;;12.64;100.00;100907.13;1751032;81;21035;-71
2021/11/05 05:39:33;;;;;;;41.55;28.02;;;;;;;12.62;100.00;100903.73;1761808;81;21536;-70
2021/11/05 05:42:00;;;;;;;47.75;27.75;;;;;;;12.63;100.00;100899.51;1747084;81;21025;-72
2021/11/05 05:44:27;;;;;;;43.50;29.02;;;;;;;12.66;100.00;100903.74;1746906;82;21039;-72
2021/11/05 05:46:54;;;;;;;43.90;30.52;;;;;;;12.66;100.00;100899.19;1753717;81;21036;-71
2021/11/05 05:49:21;;;;;;;40.52;28.00;;;;;;;12.69;100.00;100898.84;1743127;81;21552;-71
2021/11/05 05:51:48;;;;;;;40.90;28.17;;;;;;;12.72;100.00;100901.75;1752166;81;21061;-71
2021/11/05 05:54:15;;;;;;;42.65;28.32;;;;;;;12.73;100.00;100901.59;1754740;81;22073;-70
2021/11/05 05:56:42;;;;;;;39.85;27.75;;;;;;;12.77;100.00;100905.34;1732096;83;21011;-70
2021/11/05 05:59:09;;;;;;;44.25;30.05;;;;;;;12.80;100.00;100904.98;1758989;81;21041;-67
2021/11/05 06:01:36;;;;;;;44.87;31.13;;;;;;;12.83;100.00;100906.86;1751737;82;21069;-68
2021/11/05 06:04:05;;;;;;;46.02;32.20;;;;;;;12.86;100.00;100900.27;1747359;82;21559;-67
2021/11/05 06:06:32;;;;;;;49.33;34.48;;;;;;;12.89;100.00;100897.20;1751213;81;21040;-67
2021/11/05 06:08:59;;;;;;;47.13;32.08;;;;;;;12.88;100.00;100897.72;1724968;82;21065;-69
2021/11/05 06:11:26;;;;;;;45.48;31.80;;;;;;;12.90;100.00;100891.61;1757903;81;21009;-70
2021/11/05 06:13:55;;;;;;;47.30;31.48;;;;;;;12.90;100.00;100891.61;1740551;81;21554;-70
2021/11/05 06:16:22;;;;;;;45.40;30.62;;;;;;;12.92;100.00;100891.45;1744114;81;21390;-68
2021/11/05 06:18:50;;;;;;;43.60;29.50;;;;;;;12.93;100.00;100893.17;1746547;81;21068;-69
2021/11/05 06:21:17;;;;;;;38.58;28.07;;;;;;;12.96;100.00;100897.40;1746123;82;20985;-68
2021/11/05 06:23:44;;;;;;;41.05;28.20;;;;;;;13.00;100.00;100890.13;1745397;81;21025;-69
2021/11/05 06:26:12;;;;;;;43.63;28.92;;;;;;;13.04;100.00;100898.78;1739168;82;21112;-68
2021/11/05 06:28:40;;;;;;;39.48;27.82;;;;;;;13.07;100.00;100886.25;1742178;82;21037;-68
2021/11/05 06:31:07;;;;;;;40.10;27.32;;;;;;;13.09;100.00;100882.85;1744555;81;21538;-68
2021/11/05 06:33:34;;;;;;;41.68;27.93;;;;;;;13.10;100.00;100887.24;1747347;81;21024;-70
2021/11/05 06:36:00;;;;;;;40.52;28.20;;;;;;;13.13;100.00;100890.16;1747125;81;21065;-69
2021/11/05 06:38:27;;;;;;;45.33;29.45;;;;;;;13.17;100.00;100896.42;1745347;81;21511;-69
2021/11/05 06:40:53;;;;;;;44.55;30.62;;;;;;;13.17;100.00;100892.86;1748082;82;21021;-70
2021/11/05 06:43:21;;;;;;;42.58;28.38;;;;;;;13.18;100.00;100892.70;1747704;82;21044;-69
2021/11/05 06:45:48;;;;;;;42.33;28.77;;;;;;;13.18;100.00;100889.98;1748160;81;21002;-68
2021/11/05 06:48:15;;;;;;;45.65;30.08;;;;;;;13.19;100.00;100884.04;1757205;81;21081;-70
2021/11/05 06:50:43;;;;;;;42.95;28.70;;;;;;;13.23;100.00;100885.42;1753833;80;21006;-70
2021/11/05 06:53:10;;;;;;;43.50;30.20;;;;;;;13.24;100.00;100894.77;1759027;81;21452;-69
2021/11/05 06:55:37;;;;;;;44.83;30.85;;;;;;;13.29;100.00;100882.02;1758448;80;21068;-70
2021/11/05 06:58:05;;;;;;;45.78;31.82;;;;;;;13.30;100.00;100875.59;1758791;80;21073;-69
2021/11/05 07:00:31;;;;;;;44.95;30.92;;;;;;;13.29;100.00;100877.42;1756812;80;21003;-69
2021/11/05 07:03:02;;;;;;;41.25;27.87;;;;;;;13.31;100.00;100877.30;1751089;80;20971;-70
2021/11/05 07:05:29;;;;;;;43.60;28.12;;;;;;;13.34;100.00;100870.17;1757963;80;21007;-69
2021/11/05 07:07:56;;;;;;;40.45;27.45;;;;;;;13.37;100.00;100859.47;1745932;81;21033;-69
2021/11/05 07:10:23;;;;;;;46.20;28.17;;;;;;;13.42;100.00;100851.66;1743643;80;21251;-69
2021/11/05 07:12:53;;;;;;;37.65;25.62;;;;;;;13.44;100.00;100842.34;1743975;81;21066;-69
2021/11/05 07:15:20;;;;;;;40.80;26.80;;;;;;;13.52;100.00;100849.63;1756868;80;21041;-70
2021/11/05 07:17:47;;;;;;;42.23;28.23;;;;;;;13.58;100.00;100846.73;1746274;81;21010;-70
2021/11/05 07:20:15;;;;;;;43.92;29.05;;;;;;;13.58;100.00;100846.24;1753508;81;21014;-69
2021/11/05 07:22:43;;;;;;;42.20;28.05;;;;;;;13.59;100.00;100852.00;1749227;82;21159;-70
2021/11/05 07:25:11;;;;;;;42.88;30.43;;;;;;;13.63;100.00;100844.35;1748060;82;21026;-70
2021/11/05 07:27:40;;;;;;;44.83;28.00;;;;;;;13.64;100.00;100844.19;1773642;80;21093;-71
2021/11/05 07:30:09;;;;;;;42.78;28.38;;;;;;;13.70;100.00;100843.16;1758648;81;21005;-69
2021/11/05 07:32:37;;;;;;;43.15;27.98;;;;;;;13.73;100.00;100845.03;1751950;81;21056;-70
2021/11/05 07:35:07;;;;;;;40.10;26.40;;;;;;;13.78;100.00;100849.95;1711052;83;21078;-70
2021/11/05 07:37:34;;;;;;;42.98;27.13;;;;;;;13.83;100.00;100848.41;1726091;81;21042;-70
2021/11/05 07:40:01;;;;;;;41.33;27.32;;;;;;;13.89;100.00;100855.55;1720227;82;21057;-69
2021/11/05 07:42:28;;;;;;;56.70;40.03;;;;;;;13.94;100.00;100854.00;1754903;81;21010;-70
2021/11/05 07:44:55;;;;;;;42.67;28.35;;;;;;;13.98;100.00;100846.34;1749138;82;21003;-69
2021/11/05 07:47:23;;;;;;;41.35;27.50;;;;;;;13.98;100.00;100849.06;1756529;81;21026;-71
2021/11/05 07:49:50;;;;;;;41.37;27.70;;;;;;;13.98;100.00;100851.26;1754190;80;21006;-70
2021/11/05 07:52:19;;;;;;;36.77;25.23;;;;;;;14.01;100.00;100851.44;1749869;80;21038;-71
2021/11/05 07:54:47;;;;;;;39.85;26.33;;;;;;;14.05;100.00;100853.62;1754165;80;21002;-70
2021/11/05 07:57:14;;;;;;;46.45;28.67;;;;;;;14.10;100.00;100852.27;1749580;80;21027;-71
2021/11/05 07:59:41;;;;;;;39.50;24.98;;;;;;;14.16;100.00;100846.11;1769561;80;21069;-70
2021/11/05 08:02:08;;;;;;;39.73;26.50;;;;;;;14.22;100.00;100844.91;1769423;79;21469;-71
2021/11/05 08:04:35;;;;;;;38.60;27.07;;;;;;;14.27;100.00;100849.84;1756762;80;21070;-68
2021/11/05 08:07:03;;;;;;;39.70;27.20;;;;;;;14.34;100.00;100841.80;1751793;79;22394;-70
2021/11/05 08:09:30;;;;;;;40.83;27.40;;;;;;;14.37;100.00;100848.25;1754670;79;20974;-69
2021/11/05 08:11:59;;;;;;;40.88;27.27;;;;;;;14.38;100.00;100852.69;1759054;81;21015;-69
2021/11/05 08:14:25;;;;;;;40.00;27.95;;;;;;;14.41;100.00;100859.98;1728081;81;21026;-70
2021/11/05 08:16:52;;;;;;;43.05;28.05;;;;;;;14.46;100.00;100859.95;1751739;81;21017;-71
2021/11/05 08:19:20;;;;;;;36.20;24.85;;;;;;;14.52;100.00;100864.19;1750565;80;21480;-69
2021/11/05 08:21:47;;;;;;;47.25;34.75;;;;;;;14.60;100.00;100863.32;1758439;80;21041;-70
2021/11/05 08:24:13;;;;;;;40.33;26.85;;;;;;;14.64;100.00;100858.37;1758996;79;21468;-68
2021/11/05 08:26:40;;;;;;;38.13;25.50;;;;;;;14.68;100.00;100859.20;1732720;81;20987;-70
2021/11/05 08:29:07;;;;;;;41.45;27.32;;;;;;;14.72;100.00;100859.70;1752333;80;21060;-71
2021/11/05 08:31:35;;;;;;;43.08;28.23;;;;;;;14.78;100.00;100869.37;1752910;80;21626;-69
2021/11/05 08:34:02;;;;;;;44.83;29.63;;;;;;;14.80;100.00;100862.36;1755084;80;21049;-70
2021/11/05 08:36:29;;;;;;;41.20;26.85;;;;;;;14.89;100.00;100866.75;1742233;80;21031;-68
2021/11/05 08:38:56;;;;;;;41.53;27.32;;;;;;;14.99;100.00;100867.34;1763396;80;21424;-70
2021/11/05 08:41:23;;;;;;;41.80;26.02;;;;;;;14.96;100.00;100862.28;1767913;80;21038;-70
2021/11/05 08:43:55;;;;;;;41.98;26.87;;;;;;;14.99;100.00;100866.51;1756881;80;20998;-71
2021/11/05 08:46:22;;;;;;;40.75;27.25;;;;;;;15.07;100.00;100868.32;1735928;81;21061;-69
2021/11/05 08:48:54;;;;;;;42.17;27.77;;;;;;;15.10;100.00;100863.88;1758007;79;21061;-68
2021/11/05 08:51:22;;;;;;;40.25;27.10;;;;;;;15.09;100.00;100886.72;1754467;80;21009;-69
2021/11/05 08:53:49;;;;;;;43.90;26.42;;;;;;;15.09;100.00;100873.94;1755566;80;21057;-67
2021/11/05 08:56:16;;;;;;;44.40;27.40;;;;;;;15.10;100.00;100867.97;1748122;80;21540;-65
2021/11/05 08:58:43;;;;;;;44.08;28.57;;;;;;;15.15;100.00;100871.84;1766361;80;21080;-69
2021/11/05 09:01:10;;;;;;;42.20;26.40;;;;;;;15.22;100.00;100871.97;1752435;80;21084;-67
2021/11/05 09:03:38;;;;;;;43.17;28.00;;;;;;;15.27;100.00;100873.64;1737279;81;21030;-69
2021/11/05 09:06:05;;;;;;;42.08;26.95;;;;;;;15.29;100.00;100878.91;1729052;81;21692;-70
2021/11/05 09:08:33;;;;;;;41.18;25.65;;;;;;;15.29;100.00;100878.91;1738363;81;21555;-67
2021/11/05 09:11:00;;;;;;;42.78;27.10;;;;;;;15.27;100.00;100883.17;1759738;80;21033;-66
2021/11/05 09:13:29;;;;;;;41.48;26.23;;;;;;;15.33;100.00;100883.83;1764601;80;21053;-68
2021/11/05 09:15:56;;;;;;;40.95;26.23;;;;;;;15.43;100.00;100881.37;1760595;80;21013;-70
2021/11/05 09:18:23;;;;;;;42.83;26.75;;;;;;;15.43;100.00;100881.37;1757972;80;20989;-69
2021/11/05 09:20:51;;;;;;;40.30;25.55;;;;;;;15.47;100.00;100883.52;1772825;79;21072;-67
2021/11/05 09:23:17;;;;;;;42.38;25.48;;;;;;;15.50;100.00;100874.98;1730780;81;21042;-68
2021/11/05 09:25:44;;;;;;;40.92;26.02;;;;;;;15.64;100.00;100870.62;1752849;80;21026;-67
2021/11/05 09:28:11;;;;;;;43.65;26.73;;;;;;;15.64;100.00;100870.62;1754414;80;21030;-66
2021/11/05 09:30:38;;;;;;;40.35;24.82;;;;;;;15.73;100.00;100882.30;1726833;81;21014;-68
2021/11/05 09:33:05;;;;;;;38.23;23.38;;;;;;;15.83;100.00;100880.69;1759867;80;20989;-70
2021/11/05 09:35:36;;;;;;;38.15;24.70;;;;;;;15.83;100.00;100880.69;1755189;80;20994;-70
2021/11/05 09:38:05;;;;;;;37.70;23.92;;;;;;;15.88;100.00;100878.26;1760539;80;21078;-70
2021/11/05 09:40:33;;;;;;;37.75;23.70;;;;;;;15.90;100.00;100872.97;1710686;83;20973;-71
2021/11/05 09:43:00;;;;;;;35.80;21.97;;;;;;;15.97;100.00;100871.72;1750683;81;21038;-70
2021/11/05 09:45:31;;;;;;;38.35;23.22;;;;;;;16.03;100.00;100866.02;1725079;80;21022;-69
2021/11/05 09:47:56;;;;;;;40.63;25.25;;;;;;;16.08;100.00;100865.78;1743869;80;21024;-70
2021/11/05 09:50:23;;;;;;;41.37;25.37;;;;;;;16.21;100.00;100867.02;1735128;81;21550;-69
2021/11/05 09:52:50;;;;;;;38.58;24.72;;;;;;;16.34;100.00;100868.55;1744253;80;21010;-69
2021/11/05 09:55:19;;;;;;;37.17;22.73;;;;;;;16.41;100.00;100864.03;1737142;80;21029;-69
2021/11/05 09:57:46;;;;;;;32.88;21.07;;;;;;;16.48;100.00;100862.27;1752070;80;21560;-70
2021/11/05 10:00:17;;;;;;;33.58;21.65;;;;;;;16.51;100.00;100852.30;1733726;82;21003;-69
2021/11/05 10:02:44;;;;;;;33.13;20.37;;;;;;;16.56;100.00;100852.27;1715119;82;21013;-72
2021/11/05 10:05:12;;;;;;;30.35;18.77;;;;;;;16.63;100.00;100855.93;1716783;82;21006;-70
2021/11/05 10:07:54;;;;;;;29.55;17.52;;;;;;;16.72;100.00;100854.78;1775200;79;21511;-70
2021/11/05 10:10:34;;;;;;;27.62;17.45;;;;;;;16.84;100.00;100838.78;1767312;80;21002;-71
2021/11/05 10:13:10;;;;;;;26.97;17.25;;;;;;;17.03;100.00;100838.16;1769520;80;20998;-71
2021/11/05 10:15:46;;;;;;;28.55;17.15;;;;;;;17.29;100.00;100822.20;1767336;80;21011;-67
2021/11/05 10:18:18;;;;;;;26.42;16.23;;;;;;;17.44;100.00;100814.25;1750440;80;21536;-69
2021/11/05 10:20:47;;;;;;;23.80;15.70;;;;;;;17.44;100.00;100804.68;1753046;80;21042;-69
2021/11/05 10:23:15;;;;;;;26.62;15.63;;;;;;;17.46;100.00;100812.16;1759138;80;21452;-68
2021/11/05 10:25:51;;;;;;;22.77;15.00;;;;;;;17.54;100.00;100809.79;1762406;80;21063;-67
2021/11/05 10:28:25;;;;;;;23.95;15.43;;;;;;;17.58;100.00;100799.30;1766385;80;21590;-68
2021/11/05 10:31:02;;;;;;;27.25;16.12;;;;;;;17.49;100.00;100816.37;1727745;82;21022;-71
2021/11/05 10:33:40;;;;;;;26.52;15.45;;;;;;;17.42;100.00;100808.14;1716337;83;22000;-71
2021/11/05 10:36:10;;;;;;;25.08;15.05;;;;;;;17.32;100.00;100824.02;1719800;81;21074;-68
2021/11/05 10:38:41;;;;;;;25.05;15.05;;;;;;;17.32;100.00;100813.63;1715274;81;21045;-67
2021/11/05 10:41:10;;;;;;;22.65;14.68;;;;;;;17.44;100.00;100822.95;1710522;83;21476;-66
2021/11/05 10:43:56;;;;;;;22.62;14.75;;;;;;;17.50;100.00;100819.44;1709152;83;21496;-67
2021/11/05 10:46:30;;;;;;;23.10;14.98;;;;;;;17.56;100.00;100818.64;1690895;82;21205;-68
2021/11/05 10:49:00;;;;;;;22.93;14.23;;;;;;;17.59;100.00;100807.84;1741394;81;21169;-67
2021/11/05 10:51:29;;;;;;;25.80;14.23;;;;;;;17.62;100.00;100806.92;1663118;85;21570;-67
2021/11/05 10:53:58;;;;;;;24.70;15.00;;;;;;;17.61;100.00;100817.52;1695806;84;21018;-67
2021/11/05 10:56:29;;;;;;;29.72;16.23;;;;;;;17.44;100.00;100816.12;1687586;84;21020;-65
2021/11/05 10:59:05;;;;;;;25.27;15.58;;;;;;;17.28;100.00;100818.60;1688228;83;21141;-67
2021/11/05 11:01:39;;;;;;;24.57;15.13;;;;;;;17.18;100.00;100816.75;1647338;86;21060;-66
2021/11/05 11:04:08;;;;;;;24.80;15.30;;;;;;;17.14;100.00;100816.30;1660677;86;21027;-67